Terminal Aerodrome Forecast
Issued by NWS

Current Version | Previous Version | Text Only | Print | Product List | Glossary Off
Versions: 1 2 3 4 5 6 7 8 9 10 11 12 13 14 15 16 17 18 19 20 21 22 23 24 25 26 27

000
FTUS41 KRLX 200800 AAA
TAFCKB
TAF AMD
KCKB 200846Z 2009/2106 00000KT P6SM SKC
     FM201400 34005KT P6SM SCT200
     FM201700 35006KT P6SM SCT030 SCT200
     FM210200 00000KT P6SM BKN250=

USA.gov is the U.S. government's official web portal to all federal, state and local government web resources and services.